sensor_id;sensor_type;location;lat;lon;timestamp;temperature;humidity
7942;HTU21D;4016;50.758;7.150;2023-07-13T00:00:56;17.87;65.50
7942;HTU21D;4016;50.758;7.150;2023-07-13T00:05:58;17.76;67.76
7942;HTU21D;4016;50.758;7.150;2023-07-13T00:11:00;17.73;69.81
7942;HTU21D;4016;50.758;7.150;2023-07-13T00:16:00;17.51;71.87
7942;HTU21D;4016;50.758;7.150;2023-07-13T00:21:01;17.35;74.28
7942;HTU21D;4016;50.758;7.150;2023-07-13T00:26:07;17.17;75.61
7942;HTU21D;4016;50.758;7.150;2023-07-13T00:31:09;17.07;79.04
7942;HTU21D;4016;50.758;7.150;2023-07-13T00:36:10;17.01;77.08
7942;HTU21D;4016;50.758;7.150;2023-07-13T00:41:11;17.07;75.59
7942;HTU21D;4016;50.758;7.150;2023-07-13T00:46:19;17.00;76.22
7942;HTU21D;4016;50.758;7.150;2023-07-13T00:51:28;16.89;77.09
7942;HTU21D;4016;50.758;7.150;2023-07-13T00:56:31;16.85;77.75
7942;HTU21D;4016;50.758;7.150;2023-07-13T01:01:32;16.80;78.43
7942;HTU21D;4016;50.758;7.150;2023-07-13T01:06:37;16.87;77.79
7942;HTU21D;4016;50.758;7.150;2023-07-13T01:11:37;16.86;78.05
7942;HTU21D;4016;50.758;7.150;2023-07-13T01:16:39;16.87;78.73
7942;HTU21D;4016;50.758;7.150;2023-07-13T01:21:40;16.65;80.11
7942;HTU21D;4016;50.758;7.150;2023-07-13T01:26:43;16.58;81.46
7942;HTU21D;4016;50.758;7.150;2023-07-13T01:31:43;16.54;82.71
7942;HTU21D;4016;50.758;7.150;2023-07-13T01:36:44;16.52;83.12
7942;HTU21D;4016;50.758;7.150;2023-07-13T01:41:45;16.41;84.16
7942;HTU21D;4016;50.758;7.150;2023-07-13T01:46:45;16.41;84.84
7942;HTU21D;4016;50.758;7.150;2023-07-13T01:51:46;16.31;85.48
7942;HTU21D;4016;50.758;7.150;2023-07-13T01:56:46;16.26;88.89
7942;HTU21D;4016;50.758;7.150;2023-07-13T02:01:47;16.26;93.55
7942;HTU21D;4016;50.758;7.150;2023-07-13T02:06:48;16.17;93.77
7942;HTU21D;4016;50.758;7.150;2023-07-13T02:11:49;16.11;96.09
7942;HTU21D;4016;50.758;7.150;2023-07-13T02:16:49;16.01;97.18
7942;HTU21D;4016;50.758;7.150;2023-07-13T02:21:50;16.00;99.74
7942;HTU21D;4016;50.758;7.150;2023-07-13T02:26:50;15.97;100.14
7942;HTU21D;4016;50.758;7.150;2023-07-13T02:31:51;15.96;100.49
7942;HTU21D;4016;50.758;7.150;2023-07-13T02:36:51;15.97;100.83
7942;HTU21D;4016;50.758;7.150;2023-07-13T02:41:52;15.99;100.77
7942;HTU21D;4016;50.758;7.150;2023-07-13T02:46:52;15.97;100.57
7942;HTU21D;4016;50.758;7.150;2023-07-13T02:51:52;15.97;100.64
7942;HTU21D;4016;50.758;7.150;2023-07-13T02:56:53;16.04;99.90
7942;HTU21D;4016;50.758;7.150;2023-07-13T03:01:53;16.06;99.66
7942;HTU21D;4016;50.758;7.150;2023-07-13T03:06:54;16.10;99.28
7942;HTU21D;4016;50.758;7.150;2023-07-13T03:11:57;16.15;99.42
7942;HTU21D;4016;50.758;7.150;2023-07-13T03:16:58;16.27;98.53
7942;HTU21D;4016;50.758;7.150;2023-07-13T03:21:58;16.42;99.13
7942;HTU21D;4016;50.758;7.150;2023-07-13T03:26:58;16.29;100.49
7942;HTU21D;4016;50.758;7.150;2023-07-13T03:31:59;16.30;100.27
7942;HTU21D;4016;50.758;7.150;2023-07-13T03:36:59;16.28;98.87
7942;HTU21D;4016;50.758;7.150;2023-07-13T03:41:59;16.37;96.01
7942;HTU21D;4016;50.758;7.150;2023-07-13T03:47:00;16.50;93.11
7942;HTU21D;4016;50.758;7.150;2023-07-13T03:52:00;16.39;93.13
7942;HTU21D;4016;50.758;7.150;2023-07-13T03:57:01;16.41;92.91
7942;HTU21D;4016;50.758;7.150;2023-07-13T04:02:01;16.72;90.36
7942;HTU21D;4016;50.758;7.150;2023-07-13T04:07:04;16.78;89.77
7942;HTU21D;4016;50.758;7.150;2023-07-13T04:12:05;16.62;90.80
7942;HTU21D;4016;50.758;7.150;2023-07-13T04:17:05;16.91;88.88
7942;HTU21D;4016;50.758;7.150;2023-07-13T04:22:06;16.77;89.57
7942;HTU21D;4016;50.758;7.150;2023-07-13T04:27:06;16.82;90.27
7942;HTU21D;4016;50.758;7.150;2023-07-13T04:32:07;16.81;90.37
7942;HTU21D;4016;50.758;7.150;2023-07-13T04:37:08;16.96;90.31
7942;HTU21D;4016;50.758;7.150;2023-07-13T04:42:08;16.89;90.83
7942;HTU21D;4016;50.758;7.150;2023-07-13T04:47:08;16.84;91.27
7942;HTU21D;4016;50.758;7.150;2023-07-13T04:52:09;16.96;91.49
7942;HTU21D;4016;50.758;7.150;2023-07-13T04:57:09;16.98;91.95
7942;HTU21D;4016;50.758;7.150;2023-07-13T05:02:10;17.21;90.30
7942;HTU21D;4016;50.758;7.150;2023-07-13T05:07:10;17.26;90.51
7942;HTU21D;4016;50.758;7.150;2023-07-13T05:12:11;17.31;90.94
7942;HTU21D;4016;50.758;7.150;2023-07-13T05:17:11;17.43;90.90
7942;HTU21D;4016;50.758;7.150;2023-07-13T05:22:11;17.38;91.69
7942;HTU21D;4016;50.758;7.150;2023-07-13T05:27:12;17.48;90.53
7942;HTU21D;4016;50.758;7.150;2023-07-13T05:32:12;17.47;91.09
7942;HTU21D;4016;50.758;7.150;2023-07-13T05:37:12;17.61;90.80
7942;HTU21D;4016;50.758;7.150;2023-07-13T05:42:13;17.73;90.82
7942;HTU21D;4016;50.758;7.150;2023-07-13T05:47:14;17.89;89.96
7942;HTU21D;4016;50.758;7.150;2023-07-13T05:52:15;18.13;88.25
7942;HTU21D;4016;50.758;7.150;2023-07-13T05:57:15;18.29;86.98
7942;HTU21D;4016;50.758;7.150;2023-07-13T06:02:15;18.43;86.70
7942;HTU21D;4016;50.758;7.150;2023-07-13T06:07:16;18.50;87.11
7942;HTU21D;4016;50.758;7.150;2023-07-13T06:12:16;18.64;84.36
7942;HTU21D;4016;50.758;7.150;2023-07-13T06:17:16;18.64;85.20
7942;HTU21D;4016;50.758;7.150;2023-07-13T06:22:17;18.83;85.21
7942;HTU21D;4016;50.758;7.150;2023-07-13T06:27:17;19.16;81.97
7942;HTU21D;4016;50.758;7.150;2023-07-13T06:32:18;19.45;81.60
7942;HTU21D;4016;50.758;7.150;2023-07-13T06:37:18;19.92;76.65
7942;HTU21D;4016;50.758;7.150;2023-07-13T06:42:19;20.03;74.44
7942;HTU21D;4016;50.758;7.150;2023-07-13T06:47:19;19.96;76.09
7942;HTU21D;4016;50.758;7.150;2023-07-13T06:52:20;20.09;74.72
7942;HTU21D;4016;50.758;7.150;2023-07-13T06:57:20;20.26;73.35
7942;HTU21D;4016;50.758;7.150;2023-07-13T07:02:20;20.43;71.27
7942;HTU21D;4016;50.758;7.150;2023-07-13T07:07:24;20.92;68.93
7942;HTU21D;4016;50.758;7.150;2023-07-13T07:12:24;21.25;65.64
7942;HTU21D;4016;50.758;7.150;2023-07-13T07:17:24;21.63;64.55
7942;HTU21D;4016;50.758;7.150;2023-07-13T07:22:26;22.08;61.81
7942;HTU21D;4016;50.758;7.150;2023-07-13T07:27:30;22.37;60.35
7942;HTU21D;4016;50.758;7.150;2023-07-13T07:32:30;22.87;57.60
7942;HTU21D;4016;50.758;7.150;2023-07-13T07:37:31;23.51;56.26
7942;HTU21D;4016;50.758;7.150;2023-07-13T07:42:31;23.67;55.69
7942;HTU21D;4016;50.758;7.150;2023-07-13T07:47:31;23.31;55.38
7942;HTU21D;4016;50.758;7.150;2023-07-13T07:52:32;23.92;54.38
7942;HTU21D;4016;50.758;7.150;2023-07-13T07:57:32;23.95;53.46
7942;HTU21D;4016;50.758;7.150;2023-07-13T08:02:33;23.73;53.41
7942;HTU21D;4016;50.758;7.150;2023-07-13T08:07:33;23.40;56.18
7942;HTU21D;4016;50.758;7.150;2023-07-13T08:12:38;23.82;54.48
7942;HTU21D;4016;50.758;7.150;2023-07-13T08:17:39;24.02;54.32
7942;HTU21D;4016;50.758;7.150;2023-07-13T08:22:40;24.45;52.65
7942;HTU21D;4016;50.758;7.150;2023-07-13T08:27:40;24.77;50.07
7942;HTU21D;4016;50.758;7.150;2023-07-13T08:32:40;24.49;49.72
7942;HTU21D;4016;50.758;7.150;2023-07-13T08:37:41;24.28;51.18
7942;HTU21D;4016;50.758;7.150;2023-07-13T08:42:45;24.46;50.12
7942;HTU21D;4016;50.758;7.150;2023-07-13T08:48:02;24.98;49.67
7942;HTU21D;4016;50.758;7.150;2023-07-13T08:53:04;24.91;48.85
7942;HTU21D;4016;50.758;7.150;2023-07-13T08:58:11;25.18;48.06
7942;HTU21D;4016;50.758;7.150;2023-07-13T09:03:23;25.83;45.68
7942;HTU21D;4016;50.758;7.150;2023-07-13T09:08:36;26.11;43.70
7942;HTU21D;4016;50.758;7.150;2023-07-13T09:19:04;25.19;45.02
7942;HTU21D;4016;50.758;7.150;2023-07-13T09:29:36;25.57;43.72
7942;HTU21D;4016;50.758;7.150;2023-07-13T09:34:38;25.89;45.06
7942;HTU21D;4016;50.758;7.150;2023-07-13T09:39:40;25.95;43.00
7942;HTU21D;4016;50.758;7.150;2023-07-13T09:45:00;25.69;43.69
7942;HTU21D;4016;50.758;7.150;2023-07-13T09:50:06;25.92;44.80
7942;HTU21D;4016;50.758;7.150;2023-07-13T10:00:26;26.04;43.53
7942;HTU21D;4016;50.758;7.150;2023-07-13T10:05:28;25.77;46.50
7942;HTU21D;4016;50.758;7.150;2023-07-13T10:10:28;25.59;46.81
7942;HTU21D;4016;50.758;7.150;2023-07-13T10:15:28;26.12;45.25
7942;HTU21D;4016;50.758;7.150;2023-07-13T10:20:29;26.02;44.26
7942;HTU21D;4016;50.758;7.150;2023-07-13T10:25:32;25.75;46.97
7942;HTU21D;4016;50.758;7.150;2023-07-13T10:30:35;25.20;48.29
7942;HTU21D;4016;50.758;7.150;2023-07-13T10:35:40;25.42;49.27
7942;HTU21D;4016;50.758;7.150;2023-07-13T10:40:56;25.19;49.44
7942;HTU21D;4016;50.758;7.150;2023-07-13T10:45:58;25.30;50.21
7942;HTU21D;4016;50.758;7.150;2023-07-13T10:50:59;25.22;48.96
7942;HTU21D;4016;50.758;7.150;2023-07-13T11:01:17;25.19;48.18
7942;HTU21D;4016;50.758;7.150;2023-07-13T11:06:37;24.94;47.62
7942;HTU21D;4016;50.758;7.150;2023-07-13T11:11:39;25.30;47.18
7942;HTU21D;4016;50.758;7.150;2023-07-13T11:16:44;25.43;43.96
7942;HTU21D;4016;50.758;7.150;2023-07-13T11:32:40;24.88;42.30
7942;HTU21D;4016;50.758;7.150;2023-07-13T11:37:41;24.77;42.29
7942;HTU21D;4016;50.758;7.150;2023-07-13T11:42:41;25.03;41.04
7942;HTU21D;4016;50.758;7.150;2023-07-13T11:47:42;25.05;40.83
7942;HTU21D;4016;50.758;7.150;2023-07-13T11:52:43;25.15;40.18
7942;HTU21D;4016;50.758;7.150;2023-07-13T11:57:50;24.79;40.43
7942;HTU21D;4016;50.758;7.150;2023-07-13T12:02:53;24.64;40.80
7942;HTU21D;4016;50.758;7.150;2023-07-13T12:07:54;24.69;40.98
7942;HTU21D;4016;50.758;7.150;2023-07-13T12:13:01;24.83;39.95
7942;HTU21D;4016;50.758;7.150;2023-07-13T12:18:03;24.90;39.46
7942;HTU21D;4016;50.758;7.150;2023-07-13T12:23:05;24.68;41.03
7942;HTU21D;4016;50.758;7.150;2023-07-13T12:28:32;24.76;41.93
7942;HTU21D;4016;50.758;7.150;2023-07-13T12:33:33;24.86;42.09
7942;HTU21D;4016;50.758;7.150;2023-07-13T12:38:34;24.36;45.32
7942;HTU21D;4016;50.758;7.150;2023-07-13T12:43:36;24.39;46.22
7942;HTU21D;4016;50.758;7.150;2023-07-13T12:48:38;24.62;46.82
7942;HTU21D;4016;50.758;7.150;2023-07-13T12:53:49;24.98;45.70
7942;HTU21D;4016;50.758;7.150;2023-07-13T12:59:03;24.95;42.41
7942;HTU21D;4016;50.758;7.150;2023-07-13T13:04:04;24.87;43.15
7942;HTU21D;4016;50.758;7.150;2023-07-13T13:09:11;25.13;43.42
7942;HTU21D;4016;50.758;7.150;2023-07-13T13:14:13;25.00;42.96
7942;HTU21D;4016;50.758;7.150;2023-07-13T13:19:26;24.74;42.45
7942;HTU21D;4016;50.758;7.150;2023-07-13T13:24:28;25.05;38.76
7942;HTU21D;4016;50.758;7.150;2023-07-13T13:29:31;24.85;39.79
7942;HTU21D;4016;50.758;7.150;2023-07-13T13:34:32;25.12;40.03
7942;HTU21D;4016;50.758;7.150;2023-07-13T13:39:36;25.06;39.98
7942;HTU21D;4016;50.758;7.150;2023-07-13T13:44:38;25.10;41.05
7942;HTU21D;4016;50.758;7.150;2023-07-13T13:49:41;25.38;41.04
7942;HTU21D;4016;50.758;7.150;2023-07-13T13:54:41;26.08;39.39
7942;HTU21D;4016;50.758;7.150;2023-07-13T13:59:41;26.43;39.07
7942;HTU21D;4016;50.758;7.150;2023-07-13T14:04:42;26.69;37.21
7942;HTU21D;4016;50.758;7.150;2023-07-13T14:09:42;27.05;35.35
7942;HTU21D;4016;50.758;7.150;2023-07-13T14:14:42;27.50;34.99
7942;HTU21D;4016;50.758;7.150;2023-07-13T14:19:43;27.17;35.20
7942;HTU21D;4016;50.758;7.150;2023-07-13T14:24:43;26.90;35.42
7942;HTU21D;4016;50.758;7.150;2023-07-13T14:29:44;27.01;35.50
7942;HTU21D;4016;50.758;7.150;2023-07-13T14:34:44;27.26;33.97
7942;HTU21D;4016;50.758;7.150;2023-07-13T14:39:48;26.83;33.47
7942;HTU21D;4016;50.758;7.150;2023-07-13T14:44:49;26.62;35.71
7942;HTU21D;4016;50.758;7.150;2023-07-13T14:49:50;26.90;36.44
7942;HTU21D;4016;50.758;7.150;2023-07-13T14:54:51;27.34;35.19
7942;HTU21D;4016;50.758;7.150;2023-07-13T14:59:51;27.58;33.28
7942;HTU21D;4016;50.758;7.150;2023-07-13T15:04:52;27.55;33.27
7942;HTU21D;4016;50.758;7.150;2023-07-13T15:09:53;27.32;34.33
7942;HTU21D;4016;50.758;7.150;2023-07-13T15:14:53;27.64;34.98
7942;HTU21D;4016;50.758;7.150;2023-07-13T15:19:55;27.87;33.44
7942;HTU21D;4016;50.758;7.150;2023-07-13T15:24:56;27.66;33.27
7942;HTU21D;4016;50.758;7.150;2023-07-13T15:29:56;27.40;33.07
7942;HTU21D;4016;50.758;7.150;2023-07-13T15:34:57;27.35;32.89
7942;HTU21D;4016;50.758;7.150;2023-07-13T15:39:58;27.59;33.26
7942;HTU21D;4016;50.758;7.150;2023-07-13T15:44:58;27.26;34.28
7942;HTU21D;4016;50.758;7.150;2023-07-13T15:49:59;27.46;32.62
7942;HTU21D;4016;50.758;7.150;2023-07-13T15:55:00;27.81;32.39
7942;HTU21D;4016;50.758;7.150;2023-07-13T16:00:01;27.65;32.89
7942;HTU21D;4016;50.758;7.150;2023-07-13T16:05:01;27.35;34.38
7942;HTU21D;4016;50.758;7.150;2023-07-13T16:10:02;26.96;35.56
7942;HTU21D;4016;50.758;7.150;2023-07-13T16:15:04;26.68;36.12
7942;HTU21D;4016;50.758;7.150;2023-07-13T16:20:06;26.56;36.05
7942;HTU21D;4016;50.758;7.150;2023-07-13T16:25:18;26.28;37.37
7942;HTU21D;4016;50.758;7.150;2023-07-13T16:30:24;26.10;38.58
7942;HTU21D;4016;50.758;7.150;2023-07-13T16:35:28;26.15;39.39
7942;HTU21D;4016;50.758;7.150;2023-07-13T16:40:31;25.93;39.56
7942;HTU21D;4016;50.758;7.150;2023-07-13T16:45:33;25.43;40.89
7942;HTU21D;4016;50.758;7.150;2023-07-13T16:50:38;24.73;46.21
7942;HTU21D;4016;50.758;7.150;2023-07-13T16:55:40;24.28;49.74
7942;HTU21D;4016;50.758;7.150;2023-07-13T17:00:41;23.79;52.60
7942;HTU21D;4016;50.758;7.150;2023-07-13T17:05:43;23.55;54.75
7942;HTU21D;4016;50.758;7.150;2023-07-13T17:10:45;23.50;55.26
7942;HTU21D;4016;50.758;7.150;2023-07-13T17:15:50;23.70;54.84
7942;HTU21D;4016;50.758;7.150;2023-07-13T17:20:54;23.72;55.00
7942;HTU21D;4016;50.758;7.150;2023-07-13T17:25:55;23.65;54.72
7942;HTU21D;4016;50.758;7.150;2023-07-13T17:30:56;23.61;55.34
7942;HTU21D;4016;50.758;7.150;2023-07-13T17:35:59;23.57;55.13
7942;HTU21D;4016;50.758;7.150;2023-07-13T17:41:00;23.56;54.64
7942;HTU21D;4016;50.758;7.150;2023-07-13T17:46:01;23.35;55.63
7942;HTU21D;4016;50.758;7.150;2023-07-13T17:51:02;23.45;55.16
7942;HTU21D;4016;50.758;7.150;2023-07-13T17:56:02;23.32;55.84
7942;HTU21D;4016;50.758;7.150;2023-07-13T18:01:31;23.22;56.29
7942;HTU21D;4016;50.758;7.150;2023-07-13T18:06:35;23.24;56.36
7942;HTU21D;4016;50.758;7.150;2023-07-13T18:11:37;23.14;56.63
7942;HTU21D;4016;50.758;7.150;2023-07-13T18:16:38;23.22;56.64
7942;HTU21D;4016;50.758;7.150;2023-07-13T18:21:39;23.27;55.81
7942;HTU21D;4016;50.758;7.150;2023-07-13T18:26:39;23.06;56.63
7942;HTU21D;4016;50.758;7.150;2023-07-13T18:31:41;23.08;56.55
7942;HTU21D;4016;50.758;7.150;2023-07-13T18:36:43;23.03;56.86
7942;HTU21D;4016;50.758;7.150;2023-07-13T18:41:46;22.92;56.71
7942;HTU21D;4016;50.758;7.150;2023-07-13T18:46:47;23.02;56.10
7942;HTU21D;4016;50.758;7.150;2023-07-13T18:51:48;22.93;55.93
7942;HTU21D;4016;50.758;7.150;2023-07-13T18:56:50;22.83;55.32
7942;HTU21D;4016;50.758;7.150;2023-07-13T19:01:51;22.70;55.99
7942;HTU21D;4016;50.758;7.150;2023-07-13T19:06:52;22.48;57.05
7942;HTU21D;4016;50.758;7.150;2023-07-13T19:11:52;22.36;57.62
7942;HTU21D;4016;50.758;7.150;2023-07-13T19:16:53;22.25;58.48
7942;HTU21D;4016;50.758;7.150;2023-07-13T19:21:54;22.20;59.68
7942;HTU21D;4016;50.758;7.150;2023-07-13T19:26:57;22.03;61.86
7942;HTU21D;4016;50.758;7.150;2023-07-13T19:31:58;21.91;61.22
7942;HTU21D;4016;50.758;7.150;2023-07-13T19:37:00;21.96;60.25
7942;HTU21D;4016;50.758;7.150;2023-07-13T19:42:15;21.70;62.23
7942;HTU21D;4016;50.758;7.150;2023-07-13T19:47:18;21.58;63.57
7942;HTU21D;4016;50.758;7.150;2023-07-13T19:52:22;21.76;62.04
7942;HTU21D;4016;50.758;7.150;2023-07-13T19:57:27;21.67;62.31
7942;HTU21D;4016;50.758;7.150;2023-07-13T20:02:28;21.33;65.87
7942;HTU21D;4016;50.758;7.150;2023-07-13T20:07:29;21.16;67.03
7942;HTU21D;4016;50.758;7.150;2023-07-13T20:12:29;21.03;69.78
7942;HTU21D;4016;50.758;7.150;2023-07-13T20:17:33;20.99;70.13
7942;HTU21D;4016;50.758;7.150;2023-07-13T20:22:34;20.86;70.82
7942;HTU21D;4016;50.758;7.150;2023-07-13T20:27:35;20.68;73.51
7942;HTU21D;4016;50.758;7.150;2023-07-13T20:32:36;20.58;76.34
7942;HTU21D;4016;50.758;7.150;2023-07-13T20:37:38;20.43;77.75
7942;HTU21D;4016;50.758;7.150;2023-07-13T20:42:38;20.28;79.41
7942;HTU21D;4016;50.758;7.150;2023-07-13T20:47:40;20.10;80.42
7942;HTU21D;4016;50.758;7.150;2023-07-13T20:52:41;19.88;83.39
7942;HTU21D;4016;50.758;7.150;2023-07-13T20:57:41;19.75;85.15
7942;HTU21D;4016;50.758;7.150;2023-07-13T21:02:42;19.57;86.89
7942;HTU21D;4016;50.758;7.150;2023-07-13T21:07:43;19.46;89.31
7942;HTU21D;4016;50.758;7.150;2023-07-13T21:12:44;19.30;92.19
7942;HTU21D;4016;50.758;7.150;2023-07-13T21:17:47;19.20;94.07
7942;HTU21D;4016;50.758;7.150;2023-07-13T21:22:49;19.02;96.20
7942;HTU21D;4016;50.758;7.150;2023-07-13T21:27:51;18.84;97.94
7942;HTU21D;4016;50.758;7.150;2023-07-13T21:32:54;18.66;99.53
7942;HTU21D;4016;50.758;7.150;2023-07-13T21:37:56;18.51;101.37
7942;HTU21D;4016;50.758;7.150;2023-07-13T21:42:57;18.37;101.99
7942;HTU21D;4016;50.758;7.150;2023-07-13T21:47:57;18.18;102.98
7942;HTU21D;4016;50.758;7.150;2023-07-13T21:52:57;18.07;103.43
7942;HTU21D;4016;50.758;7.150;2023-07-13T21:57:58;17.90;104.08
7942;HTU21D;4016;50.758;7.150;2023-07-13T22:02:59;17.76;104.53
7942;HTU21D;4016;50.758;7.150;2023-07-13T22:07:59;17.63;105.53
7942;HTU21D;4016;50.758;7.150;2023-07-13T22:13:00;17.48;106.37
7942;HTU21D;4016;50.758;7.150;2023-07-13T22:18:05;17.36;107.62
7942;HTU21D;4016;50.758;7.150;2023-07-13T22:23:24;17.19;108.34
7942;HTU21D;4016;50.758;7.150;2023-07-13T22:28:27;17.07;109.14
7942;HTU21D;4016;50.758;7.150;2023-07-13T22:33:27;16.98;109.57
7942;HTU21D;4016;50.758;7.150;2023-07-13T22:38:30;16.91;110.33
7942;HTU21D;4016;50.758;7.150;2023-07-13T22:43:32;16.80;110.04
7942;HTU21D;4016;50.758;7.150;2023-07-13T22:48:42;16.74;109.90
7942;HTU21D;4016;50.758;7.150;2023-07-13T22:53:43;16.65;110.58
7942;HTU21D;4016;50.758;7.150;2023-07-13T22:58:44;16.60;111.45
7942;HTU21D;4016;50.758;7.150;2023-07-13T23:03:45;16.43;112.47
7942;HTU21D;4016;50.758;7.150;2023-07-13T23:08:47;16.33;113.22
7942;HTU21D;4016;50.758;7.150;2023-07-13T23:13:50;16.28;113.22
7942;HTU21D;4016;50.758;7.150;2023-07-13T23:18:51;16.24;113.09
7942;HTU21D;4016;50.758;7.150;2023-07-13T23:23:52;16.06;114.17
7942;HTU21D;4016;50.758;7.150;2023-07-13T23:28:54;15.97;115.13
7942;HTU21D;4016;50.758;7.150;2023-07-13T23:33:56;15.90;115.66
7942;HTU21D;4016;50.758;7.150;2023-07-13T23:38:57;15.74;116.77
7942;HTU21D;4016;50.758;7.150;2023-07-13T23:43:58;15.71;117.83
7942;HTU21D;4016;50.758;7.150;2023-07-13T23:49:08;15.68;118.22
7942;HTU21D;4016;50.758;7.150;2023-07-13T23:54:11;15.72;118.20
7942;HTU21D;4016;50.758;7.150;2023-07-13T23:59:11;15.72;118.79
